sensor_id;sensor_type;location;lat;lon;timestamp;P1;durP1;ratioP1;P2;durP2;ratioP2
34583;SDS011;53696;52.738;4.752;2023-04-30T00:00:14;6.22;;;4.47;;
34583;SDS011;53696;52.738;4.752;2023-04-30T00:02:42;6.03;;;4.38;;
34583;SDS011;53696;52.738;4.752;2023-04-30T00:05:11;7.05;;;4.57;;
34583;SDS011;53696;52.738;4.752;2023-04-30T00:07:39;7.47;;;4.75;;
34583;SDS011;53696;52.738;4.752;2023-04-30T00:10:08;7.93;;;5.22;;
34583;SDS011;53696;52.738;4.752;2023-04-30T00:12:36;6.63;;;4.63;;
34583;SDS011;53696;52.738;4.752;2023-04-30T00:15:05;9.30;;;5.03;;
34583;SDS011;53696;52.738;4.752;2023-04-30T00:17:33;7.22;;;4.78;;
34583;SDS011;53696;52.738;4.752;2023-04-30T00:20:01;8.55;;;5.18;;
34583;SDS011;53696;52.738;4.752;2023-04-30T00:22:30;12.93;;;5.22;;
34583;SDS011;53696;52.738;4.752;2023-04-30T00:24:58;5.85;;;4.47;;
34583;SDS011;53696;52.738;4.752;2023-04-30T00:27:26;6.43;;;4.80;;
34583;SDS011;53696;52.738;4.752;2023-04-30T00:29:54;6.05;;;4.88;;
34583;SDS011;53696;52.738;4.752;2023-04-30T00:32:22;8.80;;;5.20;;
34583;SDS011;53696;52.738;4.752;2023-04-30T00:34:49;6.25;;;4.82;;
34583;SDS011;53696;52.738;4.752;2023-04-30T00:37:17;5.65;;;4.53;;
34583;SDS011;53696;52.738;4.752;2023-04-30T00:39:46;6.00;;;4.88;;
34583;SDS011;53696;52.738;4.752;2023-04-30T00:42:14;6.28;;;4.97;;
34583;SDS011;53696;52.738;4.752;2023-04-30T00:44:42;6.45;;;4.75;;
34583;SDS011;53696;52.738;4.752;2023-04-30T00:47:09;10.13;;;5.05;;
34583;SDS011;53696;52.738;4.752;2023-04-30T00:49:37;5.90;;;5.10;;
34583;SDS011;53696;52.738;4.752;2023-04-30T00:52:05;7.03;;;4.78;;
34583;SDS011;53696;52.738;4.752;2023-04-30T00:54:33;6.78;;;4.40;;
34583;SDS011;53696;52.738;4.752;2023-04-30T00:57:03;7.50;;;4.82;;
34583;SDS011;53696;52.738;4.752;2023-04-30T00:59:32;6.95;;;5.50;;
34583;SDS011;53696;52.738;4.752;2023-04-30T01:02:00;8.20;;;4.72;;
34583;SDS011;53696;52.738;4.752;2023-04-30T01:04:29;7.20;;;5.00;;
34583;SDS011;53696;52.738;4.752;2023-04-30T01:06:58;9.82;;;5.15;;
34583;SDS011;53696;52.738;4.752;2023-04-30T01:09:27;8.07;;;5.38;;
34583;SDS011;53696;52.738;4.752;2023-04-30T01:11:56;5.20;;;4.30;;
34583;SDS011;53696;52.738;4.752;2023-04-30T01:14:32;7.35;;;5.18;;
34583;SDS011;53696;52.738;4.752;2023-04-30T01:17:15;6.75;;;4.72;;
34583;SDS011;53696;52.738;4.752;2023-04-30T01:19:48;8.55;;;5.13;;
34583;SDS011;53696;52.738;4.752;2023-04-30T01:22:21;5.57;;;4.68;;
34583;SDS011;53696;52.738;4.752;2023-04-30T01:25:05;9.10;;;5.20;;
34583;SDS011;53696;52.738;4.752;2023-04-30T01:30:34;6.32;;;4.78;;
34583;SDS011;53696;52.738;4.752;2023-04-30T01:33:02;5.22;;;4.65;;
34583;SDS011;53696;52.738;4.752;2023-04-30T01:35:44;7.63;;;5.63;;
34583;SDS011;53696;52.738;4.752;2023-04-30T01:38:33;7.22;;;5.00;;
34583;SDS011;53696;52.738;4.752;2023-04-30T01:41:16;7.68;;;4.60;;
34583;SDS011;53696;52.738;4.752;2023-04-30T01:43:58;7.90;;;5.97;;
34583;SDS011;53696;52.738;4.752;2023-04-30T01:46:34;7.80;;;5.03;;
34583;SDS011;53696;52.738;4.752;2023-04-30T01:49:03;6.32;;;4.93;;
34583;SDS011;53696;52.738;4.752;2023-04-30T01:51:38;6.55;;;4.65;;
34583;SDS011;53696;52.738;4.752;2023-04-30T01:54:10;5.80;;;4.65;;
34583;SDS011;53696;52.738;4.752;2023-04-30T01:56:48;5.60;;;5.07;;
34583;SDS011;53696;52.738;4.752;2023-04-30T01:59:24;6.50;;;4.78;;
34583;SDS011;53696;52.738;4.752;2023-04-30T02:01:52;6.55;;;4.80;;
34583;SDS011;53696;52.738;4.752;2023-04-30T02:04:22;6.70;;;4.78;;
34583;SDS011;53696;52.738;4.752;2023-04-30T02:06:50;5.38;;;4.68;;
34583;SDS011;53696;52.738;4.752;2023-04-30T02:09:18;6.05;;;4.38;;
34583;SDS011;53696;52.738;4.752;2023-04-30T02:11:45;4.72;;;4.00;;
34583;SDS011;53696;52.738;4.752;2023-04-30T02:14:13;6.75;;;4.68;;
34583;SDS011;53696;52.738;4.752;2023-04-30T02:16:42;8.40;;;5.20;;
34583;SDS011;53696;52.738;4.752;2023-04-30T02:19:10;6.97;;;5.40;;
34583;SDS011;53696;52.738;4.752;2023-04-30T02:21:38;5.65;;;4.85;;
34583;SDS011;53696;52.738;4.752;2023-04-30T02:24:05;5.57;;;5.00;;
34583;SDS011;53696;52.738;4.752;2023-04-30T02:26:33;6.22;;;4.65;;
34583;SDS011;53696;52.738;4.752;2023-04-30T02:29:01;5.20;;;4.63;;
34583;SDS011;53696;52.738;4.752;2023-04-30T02:31:28;6.00;;;4.45;;
34583;SDS011;53696;52.738;4.752;2023-04-30T02:33:57;6.88;;;4.40;;
34583;SDS011;53696;52.738;4.752;2023-04-30T02:36:25;4.93;;;4.43;;
34583;SDS011;53696;52.738;4.752;2023-04-30T02:38:53;5.38;;;4.53;;
34583;SDS011;53696;52.738;4.752;2023-04-30T02:41:21;6.60;;;4.68;;
34583;SDS011;53696;52.738;4.752;2023-04-30T02:43:48;6.65;;;5.03;;
34583;SDS011;53696;52.738;4.752;2023-04-30T02:46:16;5.20;;;4.22;;
34583;SDS011;53696;52.738;4.752;2023-04-30T02:48:44;7.22;;;4.63;;
34583;SDS011;53696;52.738;4.752;2023-04-30T02:51:13;7.10;;;4.25;;
34583;SDS011;53696;52.738;4.752;2023-04-30T02:53:41;6.75;;;4.40;;
34583;SDS011;53696;52.738;4.752;2023-04-30T02:56:09;6.75;;;4.63;;
34583;SDS011;53696;52.738;4.752;2023-04-30T02:58:36;6.03;;;4.63;;
34583;SDS011;53696;52.738;4.752;2023-04-30T03:01:04;5.13;;;4.50;;
34583;SDS011;53696;52.738;4.752;2023-04-30T03:03:32;6.15;;;4.57;;
34583;SDS011;53696;52.738;4.752;2023-04-30T03:05:59;6.55;;;4.60;;
34583;SDS011;53696;52.738;4.752;2023-04-30T03:08:28;6.18;;;4.65;;
34583;SDS011;53696;52.738;4.752;2023-04-30T03:10:56;5.47;;;4.50;;
34583;SDS011;53696;52.738;4.752;2023-04-30T03:13:24;6.38;;;4.78;;
34583;SDS011;53696;52.738;4.752;2023-04-30T03:15:55;6.03;;;4.18;;
34583;SDS011;53696;52.738;4.752;2023-04-30T03:18:24;6.13;;;4.47;;
34583;SDS011;53696;52.738;4.752;2023-04-30T03:20:52;5.07;;;3.88;;
34583;SDS011;53696;52.738;4.752;2023-04-30T03:23:19;5.35;;;4.22;;
34583;SDS011;53696;52.738;4.752;2023-04-30T03:25:49;6.15;;;4.68;;
34583;SDS011;53696;52.738;4.752;2023-04-30T03:28:17;4.65;;;4.18;;
34583;SDS011;53696;52.738;4.752;2023-04-30T03:30:45;5.07;;;4.05;;
34583;SDS011;53696;52.738;4.752;2023-04-30T03:33:12;5.82;;;3.70;;
34583;SDS011;53696;52.738;4.752;2023-04-30T03:35:40;6.22;;;4.38;;
34583;SDS011;53696;52.738;4.752;2023-04-30T03:38:08;7.18;;;4.43;;
34583;SDS011;53696;52.738;4.752;2023-04-30T03:40:36;4.75;;;3.97;;
34583;SDS011;53696;52.738;4.752;2023-04-30T03:43:05;5.82;;;4.35;;
34583;SDS011;53696;52.738;4.752;2023-04-30T03:45:32;5.38;;;4.50;;
34583;SDS011;53696;52.738;4.752;2023-04-30T03:48:00;5.85;;;3.90;;
34583;SDS011;53696;52.738;4.752;2023-04-30T03:50:28;6.40;;;4.70;;
34583;SDS011;53696;52.738;4.752;2023-04-30T03:52:56;4.63;;;4.00;;
34583;SDS011;53696;52.738;4.752;2023-04-30T03:55:24;5.72;;;4.03;;
34583;SDS011;53696;52.738;4.752;2023-04-30T03:57:52;5.25;;;4.13;;
34583;SDS011;53696;52.738;4.752;2023-04-30T04:00:21;5.20;;;3.78;;
34583;SDS011;53696;52.738;4.752;2023-04-30T04:02:49;5.95;;;4.47;;
34583;SDS011;53696;52.738;4.752;2023-04-30T04:05:16;4.90;;;4.13;;
34583;SDS011;53696;52.738;4.752;2023-04-30T04:07:44;4.18;;;3.78;;
34583;SDS011;53696;52.738;4.752;2023-04-30T04:10:12;4.88;;;4.30;;
34583;SDS011;53696;52.738;4.752;2023-04-30T04:12:39;4.18;;;3.58;;
34583;SDS011;53696;52.738;4.752;2023-04-30T04:15:08;5.57;;;4.13;;
34583;SDS011;53696;52.738;4.752;2023-04-30T04:17:37;4.53;;;3.75;;
34583;SDS011;53696;52.738;4.752;2023-04-30T04:20:05;5.28;;;3.60;;
34583;SDS011;53696;52.738;4.752;2023-04-30T04:22:36;6.38;;;4.57;;
34583;SDS011;53696;52.738;4.752;2023-04-30T04:25:04;4.18;;;3.55;;
34583;SDS011;53696;52.738;4.752;2023-04-30T04:27:33;3.80;;;3.42;;
34583;SDS011;53696;52.738;4.752;2023-04-30T04:30:02;4.75;;;4.30;;
34583;SDS011;53696;52.738;4.752;2023-04-30T04:32:30;8.70;;;4.10;;
34583;SDS011;53696;52.738;4.752;2023-04-30T04:34:59;4.57;;;4.10;;
34583;SDS011;53696;52.738;4.752;2023-04-30T04:37:26;5.43;;;3.97;;
34583;SDS011;53696;52.738;4.752;2023-04-30T04:39:54;5.28;;;4.28;;
34583;SDS011;53696;52.738;4.752;2023-04-30T04:42:22;5.05;;;4.07;;
34583;SDS011;53696;52.738;4.752;2023-04-30T04:44:50;6.00;;;3.78;;
34583;SDS011;53696;52.738;4.752;2023-04-30T04:47:17;5.90;;;4.25;;
34583;SDS011;53696;52.738;4.752;2023-04-30T04:49:48;5.05;;;3.72;;
34583;SDS011;53696;52.738;4.752;2023-04-30T04:52:17;5.20;;;3.75;;
34583;SDS011;53696;52.738;4.752;2023-04-30T04:54:44;4.53;;;3.40;;
34583;SDS011;53696;52.738;4.752;2023-04-30T04:57:12;4.78;;;3.78;;
34583;SDS011;53696;52.738;4.752;2023-04-30T04:59:39;4.28;;;3.83;;
34583;SDS011;53696;52.738;4.752;2023-04-30T05:02:07;4.57;;;3.63;;
34583;SDS011;53696;52.738;4.752;2023-04-30T05:04:35;4.65;;;3.97;;
34583;SDS011;53696;52.738;4.752;2023-04-30T05:07:03;4.65;;;3.65;;
34583;SDS011;53696;52.738;4.752;2023-04-30T05:09:34;6.35;;;3.67;;
34583;SDS011;53696;52.738;4.752;2023-04-30T05:12:02;4.40;;;3.53;;
34583;SDS011;53696;52.738;4.752;2023-04-30T05:14:29;4.28;;;3.42;;
34583;SDS011;53696;52.738;4.752;2023-04-30T05:16:57;4.10;;;3.58;;
34583;SDS011;53696;52.738;4.752;2023-04-30T05:19:25;5.13;;;3.50;;
34583;SDS011;53696;52.738;4.752;2023-04-30T05:21:52;3.90;;;3.50;;
34583;SDS011;53696;52.738;4.752;2023-04-30T05:24:20;4.82;;;3.40;;
34583;SDS011;53696;52.738;4.752;2023-04-30T05:26:49;5.15;;;3.30;;
34583;SDS011;53696;52.738;4.752;2023-04-30T05:29:17;4.75;;;3.53;;
34583;SDS011;53696;52.738;4.752;2023-04-30T05:31:44;4.07;;;3.30;;
34583;SDS011;53696;52.738;4.752;2023-04-30T05:34:12;5.07;;;3.55;;
34583;SDS011;53696;52.738;4.752;2023-04-30T05:36:41;4.82;;;3.83;;
34583;SDS011;53696;52.738;4.752;2023-04-30T05:39:09;3.95;;;3.58;;
34583;SDS011;53696;52.738;4.752;2023-04-30T05:41:37;4.07;;;3.50;;
34583;SDS011;53696;52.738;4.752;2023-04-30T05:44:06;4.85;;;3.45;;
34583;SDS011;53696;52.738;4.752;2023-04-30T05:46:34;4.43;;;3.47;;
34583;SDS011;53696;52.738;4.752;2023-04-30T05:49:01;5.43;;;3.28;;
34583;SDS011;53696;52.738;4.752;2023-04-30T05:51:29;3.30;;;3.00;;
34583;SDS011;53696;52.738;4.752;2023-04-30T05:53:57;4.07;;;2.83;;
34583;SDS011;53696;52.738;4.752;2023-04-30T05:56:25;3.47;;;2.90;;
34583;SDS011;53696;52.738;4.752;2023-04-30T05:58:53;6.25;;;3.38;;
34583;SDS011;53696;52.738;4.752;2023-04-30T06:01:22;3.42;;;2.65;;
34583;SDS011;53696;52.738;4.752;2023-04-30T06:03:53;4.78;;;2.90;;
34583;SDS011;53696;52.738;4.752;2023-04-30T06:06:21;3.70;;;3.10;;
34583;SDS011;53696;52.738;4.752;2023-04-30T06:08:49;6.80;;;3.10;;
34583;SDS011;53696;52.738;4.752;2023-04-30T06:11:16;3.05;;;2.75;;
34583;SDS011;53696;52.738;4.752;2023-04-30T06:13:46;3.08;;;2.80;;
34583;SDS011;53696;52.738;4.752;2023-04-30T06:16:14;3.22;;;2.92;;
34583;SDS011;53696;52.738;4.752;2023-04-30T06:18:43;5.18;;;3.30;;
34583;SDS011;53696;52.738;4.752;2023-04-30T06:21:10;3.25;;;2.78;;
34583;SDS011;53696;52.738;4.752;2023-04-30T06:23:38;3.50;;;3.13;;
34583;SDS011;53696;52.738;4.752;2023-04-30T06:26:06;3.00;;;2.70;;
34583;SDS011;53696;52.738;4.752;2023-04-30T06:28:34;4.53;;;3.35;;
34583;SDS011;53696;52.738;4.752;2023-04-30T06:31:01;3.15;;;2.85;;
34583;SDS011;53696;52.738;4.752;2023-04-30T06:33:29;2.78;;;2.58;;
34583;SDS011;53696;52.738;4.752;2023-04-30T06:35:58;3.20;;;2.90;;
34583;SDS011;53696;52.738;4.752;2023-04-30T06:38:26;3.35;;;2.75;;
34583;SDS011;53696;52.738;4.752;2023-04-30T06:40:53;3.30;;;3.00;;
34583;SDS011;53696;52.738;4.752;2023-04-30T06:43:21;2.85;;;2.38;;
34583;SDS011;53696;52.738;4.752;2023-04-30T06:45:49;3.30;;;2.78;;
34583;SDS011;53696;52.738;4.752;2023-04-30T06:48:17;4.18;;;3.22;;
34583;SDS011;53696;52.738;4.752;2023-04-30T06:50:44;3.28;;;2.97;;
34583;SDS011;53696;52.738;4.752;2023-04-30T06:53:14;4.28;;;3.10;;
34583;SDS011;53696;52.738;4.752;2023-04-30T06:55:43;3.00;;;2.70;;
34583;SDS011;53696;52.738;4.752;2023-04-30T06:58:11;2.95;;;2.50;;
34583;SDS011;53696;52.738;4.752;2023-04-30T07:00:39;3.38;;;2.80;;
34583;SDS011;53696;52.738;4.752;2023-04-30T07:03:07;3.05;;;2.50;;
34583;SDS011;53696;52.738;4.752;2023-04-30T07:05:35;5.28;;;2.92;;
34583;SDS011;53696;52.738;4.752;2023-04-30T07:08:03;3.13;;;2.80;;
34583;SDS011;53696;52.738;4.752;2023-04-30T07:10:32;2.95;;;2.63;;
34583;SDS011;53696;52.738;4.752;2023-04-30T07:13:00;3.08;;;2.78;;
34583;SDS011;53696;52.738;4.752;2023-04-30T07:15:27;2.60;;;2.40;;
34583;SDS011;53696;52.738;4.752;2023-04-30T07:17:55;3.00;;;2.28;;
34583;SDS011;53696;52.738;4.752;2023-04-30T07:20:23;3.72;;;2.30;;
34583;SDS011;53696;52.738;4.752;2023-04-30T07:22:51;2.80;;;2.28;;
34583;SDS011;53696;52.738;4.752;2023-04-30T07:25:20;2.45;;;2.20;;
34583;SDS011;53696;52.738;4.752;2023-04-30T07:27:49;3.58;;;2.53;;
34583;SDS011;53696;52.738;4.752;2023-04-30T07:30:17;2.78;;;2.30;;
34583;SDS011;53696;52.738;4.752;2023-04-30T07:32:46;3.65;;;2.17;;
34583;SDS011;53696;52.738;4.752;2023-04-30T07:35:15;2.47;;;2.28;;
34583;SDS011;53696;52.738;4.752;2023-04-30T07:37:43;2.40;;;2.20;;
34583;SDS011;53696;52.738;4.752;2023-04-30T07:40:11;3.75;;;2.13;;
34583;SDS011;53696;52.738;4.752;2023-04-30T07:42:55;2.25;;;2.00;;
34583;SDS011;53696;52.738;4.752;2023-04-30T07:45:22;3.95;;;2.72;;
34583;SDS011;53696;52.738;4.752;2023-04-30T07:47:50;2.70;;;2.38;;
34583;SDS011;53696;52.738;4.752;2023-04-30T07:50:18;3.33;;;2.33;;
34583;SDS011;53696;52.738;4.752;2023-04-30T07:52:47;2.38;;;2.17;;
34583;SDS011;53696;52.738;4.752;2023-04-30T07:55:15;2.10;;;2.00;;
34583;SDS011;53696;52.738;4.752;2023-04-30T07:57:43;2.78;;;2.30;;
34583;SDS011;53696;52.738;4.752;2023-04-30T08:00:12;2.50;;;2.15;;
34583;SDS011;53696;52.738;4.752;2023-04-30T08:02:41;3.45;;;2.10;;
34583;SDS011;53696;52.738;4.752;2023-04-30T08:05:11;3.78;;;2.58;;
34583;SDS011;53696;52.738;4.752;2023-04-30T08:07:39;2.95;;;2.15;;
34583;SDS011;53696;52.738;4.752;2023-04-30T08:10:07;2.72;;;2.53;;
34583;SDS011;53696;52.738;4.752;2023-04-30T08:12:35;8.70;;;2.15;;
34583;SDS011;53696;52.738;4.752;2023-04-30T08:15:04;3.63;;;2.15;;
34583;SDS011;53696;52.738;4.752;2023-04-30T08:17:34;3.22;;;2.13;;
34583;SDS011;53696;52.738;4.752;2023-04-30T08:20:03;2.25;;;2.03;;
34583;SDS011;53696;52.738;4.752;2023-04-30T08:22:32;3.78;;;2.00;;
34583;SDS011;53696;52.738;4.752;2023-04-30T08:25:00;3.20;;;2.55;;
34583;SDS011;53696;52.738;4.752;2023-04-30T08:27:29;2.20;;;2.00;;
34583;SDS011;53696;52.738;4.752;2023-04-30T08:29:58;1.90;;;1.75;;
34583;SDS011;53696;52.738;4.752;2023-04-30T08:32:26;4.47;;;2.13;;
34583;SDS011;53696;52.738;4.752;2023-04-30T08:34:55;4.65;;;2.70;;
34583;SDS011;53696;52.738;4.752;2023-04-30T08:37:23;1.90;;;1.60;;
34583;SDS011;53696;52.738;4.752;2023-04-30T08:39:51;2.97;;;2.13;;
34583;SDS011;53696;52.738;4.752;2023-04-30T08:42:20;2.63;;;1.63;;
34583;SDS011;53696;52.738;4.752;2023-04-30T08:44:52;1.70;;;1.60;;
34583;SDS011;53696;52.738;4.752;2023-04-30T08:47:21;1.63;;;1.45;;
34583;SDS011;53696;52.738;4.752;2023-04-30T08:49:50;1.98;;;1.30;;
34583;SDS011;53696;52.738;4.752;2023-04-30T08:52:20;1.42;;;1.33;;
34583;SDS011;53696;52.738;4.752;2023-04-30T08:54:49;2.40;;;1.77;;
34583;SDS011;53696;52.738;4.752;2023-04-30T08:57:19;1.50;;;1.40;;
34583;SDS011;53696;52.738;4.752;2023-04-30T08:59:47;2.00;;;1.35;;
34583;SDS011;53696;52.738;4.752;2023-04-30T09:02:15;1.77;;;1.50;;
34583;SDS011;53696;52.738;4.752;2023-04-30T09:04:42;2.38;;;1.75;;
34583;SDS011;53696;52.738;4.752;2023-04-30T09:07:11;3.33;;;1.20;;
34583;SDS011;53696;52.738;4.752;2023-04-30T09:09:41;3.13;;;1.63;;
34583;SDS011;53696;52.738;4.752;2023-04-30T09:12:09;1.63;;;1.35;;
34583;SDS011;53696;52.738;4.752;2023-04-30T09:14:56;2.45;;;1.90;;
34583;SDS011;53696;52.738;4.752;2023-04-30T09:17:25;3.37;;;1.53;;
34583;SDS011;53696;52.738;4.752;2023-04-30T09:19:53;2.45;;;1.20;;
34583;SDS011;53696;52.738;4.752;2023-04-30T09:22:32;2.55;;;1.00;;
34583;SDS011;53696;52.738;4.752;2023-04-30T09:25:03;1.88;;;1.45;;
34583;SDS011;53696;52.738;4.752;2023-04-30T09:27:32;2.42;;;1.33;;
34583;SDS011;53696;52.738;4.752;2023-04-30T09:30:00;3.05;;;1.63;;
34583;SDS011;53696;52.738;4.752;2023-04-30T09:32:28;1.73;;;1.30;;
34583;SDS011;53696;52.738;4.752;2023-04-30T09:34:57;1.85;;;1.40;;
34583;SDS011;53696;52.738;4.752;2023-04-30T09:37:33;2.58;;;2.38;;
34583;SDS011;53696;52.738;4.752;2023-04-30T09:40:04;2.10;;;1.35;;
34583;SDS011;53696;52.738;4.752;2023-04-30T09:42:33;4.50;;;1.40;;
34583;SDS011;53696;52.738;4.752;2023-04-30T09:45:02;2.40;;;1.20;;
34583;SDS011;53696;52.738;4.752;2023-04-30T09:47:31;3.28;;;1.20;;
34583;SDS011;53696;52.738;4.752;2023-04-30T09:50:01;1.77;;;1.48;;
34583;SDS011;53696;52.738;4.752;2023-04-30T09:52:29;4.15;;;1.35;;
34583;SDS011;53696;52.738;4.752;2023-04-30T09:54:57;7.90;;;3.03;;
34583;SDS011;53696;52.738;4.752;2023-04-30T09:57:27;4.47;;;1.58;;
34583;SDS011;53696;52.738;4.752;2023-04-30T10:00:01;6.22;;;1.38;;
34583;SDS011;53696;52.738;4.752;2023-04-30T10:02:30;2.08;;;1.50;;
34583;SDS011;53696;52.738;4.752;2023-04-30T10:04:59;6.05;;;1.73;;
34583;SDS011;53696;52.738;4.752;2023-04-30T10:07:29;2.67;;;1.30;;
34583;SDS011;53696;52.738;4.752;2023-04-30T10:10:07;3.58;;;1.60;;
34583;SDS011;53696;52.738;4.752;2023-04-30T10:12:38;5.47;;;1.77;;
34583;SDS011;53696;52.738;4.752;2023-04-30T10:15:12;3.50;;;1.33;;
34583;SDS011;53696;52.738;4.752;2023-04-30T10:17:44;4.75;;;1.23;;
34583;SDS011;53696;52.738;4.752;2023-04-30T10:20:16;3.72;;;1.20;;
34583;SDS011;53696;52.738;4.752;2023-04-30T10:22:47;8.13;;;1.67;;
34583;SDS011;53696;52.738;4.752;2023-04-30T10:25:17;1.02;;;0.95;;
34583;SDS011;53696;52.738;4.752;2023-04-30T10:27:46;12.75;;;2.05;;
34583;SDS011;53696;52.738;4.752;2023-04-30T10:30:14;4.05;;;1.75;;
34583;SDS011;53696;52.738;4.752;2023-04-30T10:32:45;5.10;;;1.90;;
34583;SDS011;53696;52.738;4.752;2023-04-30T10:35:18;5.22;;;2.60;;
34583;SDS011;53696;52.738;4.752;2023-04-30T10:37:52;4.18;;;2.15;;
34583;SDS011;53696;52.738;4.752;2023-04-30T10:40:25;6.15;;;2.45;;
34583;SDS011;53696;52.738;4.752;2023-04-30T10:42:54;5.72;;;2.40;;
34583;SDS011;53696;52.738;4.752;2023-04-30T10:45:33;3.33;;;2.42;;
34583;SDS011;53696;52.738;4.752;2023-04-30T10:48:03;6.43;;;2.67;;
34583;SDS011;53696;52.738;4.752;2023-04-30T10:50:32;6.45;;;2.42;;
34583;SDS011;53696;52.738;4.752;2023-04-30T10:53:11;9.75;;;2.38;;
34583;SDS011;53696;52.738;4.752;2023-04-30T10:55:45;6.68;;;2.10;;
34583;SDS011;53696;52.738;4.752;2023-04-30T10:58:25;5.88;;;2.50;;
34583;SDS011;53696;52.738;4.752;2023-04-30T11:01:02;4.75;;;2.20;;
34583;SDS011;53696;52.738;4.752;2023-04-30T11:03:33;4.10;;;2.40;;
34583;SDS011;53696;52.738;4.752;2023-04-30T11:06:10;5.00;;;2.33;;
34583;SDS011;53696;52.738;4.752;2023-04-30T11:08:39;7.68;;;2.30;;
34583;SDS011;53696;52.738;4.752;2023-04-30T11:11:10;5.25;;;2.30;;
34583;SDS011;53696;52.738;4.752;2023-04-30T11:13:43;3.20;;;2.00;;
34583;SDS011;53696;52.738;4.752;2023-04-30T11:16:11;6.18;;;2.63;;
34583;SDS011;53696;52.738;4.752;2023-04-30T11:18:42;7.43;;;2.05;;
34583;SDS011;53696;52.738;4.752;2023-04-30T11:23:39;11.63;;;2.45;;
34583;SDS011;53696;52.738;4.752;2023-04-30T11:26:09;4.07;;;1.92;;
34583;SDS011;53696;52.738;4.752;2023-04-30T11:28:37;7.03;;;2.15;;
34583;SDS011;53696;52.738;4.752;2023-04-30T11:31:06;6.68;;;1.73;;
34583;SDS011;53696;52.738;4.752;2023-04-30T11:33:34;3.42;;;1.70;;
34583;SDS011;53696;52.738;4.752;2023-04-30T11:36:01;4.10;;;1.90;;
34583;SDS011;53696;52.738;4.752;2023-04-30T11:38:30;2.08;;;1.70;;
34583;SDS011;53696;52.738;4.752;2023-04-30T11:41:02;3.10;;;1.77;;
34583;SDS011;53696;52.738;4.752;2023-04-30T11:43:30;3.08;;;1.48;;
34583;SDS011;53696;52.738;4.752;2023-04-30T11:46:03;4.25;;;1.40;;
34583;SDS011;53696;52.738;4.752;2023-04-30T11:48:35;2.47;;;2.05;;
34583;SDS011;53696;52.738;4.752;2023-04-30T11:51:05;4.97;;;2.80;;
34583;SDS011;53696;52.738;4.752;2023-04-30T11:53:40;5.00;;;1.48;;
34583;SDS011;53696;52.738;4.752;2023-04-30T11:56:08;3.58;;;1.95;;
34583;SDS011;53696;52.738;4.752;2023-04-30T11:58:36;5.47;;;2.10;;
34583;SDS011;53696;52.738;4.752;2023-04-30T12:01:07;2.47;;;1.55;;
34583;SDS011;53696;52.738;4.752;2023-04-30T12:03:39;2.42;;;1.52;;
34583;SDS011;53696;52.738;4.752;2023-04-30T12:06:09;3.83;;;1.52;;
34583;SDS011;53696;52.738;4.752;2023-04-30T12:08:37;2.85;;;1.67;;
34583;SDS011;53696;52.738;4.752;2023-04-30T12:11:18;6.18;;;1.70;;
34583;SDS011;53696;52.738;4.752;2023-04-30T12:13:50;2.00;;;1.52;;
34583;SDS011;53696;52.738;4.752;2023-04-30T12:16:20;1.85;;;1.42;;
34583;SDS011;53696;52.738;4.752;2023-04-30T12:18:48;2.03;;;1.20;;
34583;SDS011;53696;52.738;4.752;2023-04-30T12:21:19;3.20;;;1.30;;
34583;SDS011;53696;52.738;4.752;2023-04-30T12:23:48;7.00;;;1.73;;
34583;SDS011;53696;52.738;4.752;2023-04-30T12:26:16;9.55;;;1.40;;
34583;SDS011;53696;52.738;4.752;2023-04-30T12:28:45;5.70;;;1.55;;
34583;SDS011;53696;52.738;4.752;2023-04-30T12:31:15;3.28;;;1.20;;
34583;SDS011;53696;52.738;4.752;2023-04-30T12:33:53;4.63;;;1.45;;
34583;SDS011;53696;52.738;4.752;2023-04-30T12:36:28;6.10;;;1.40;;
34583;SDS011;53696;52.738;4.752;2023-04-30T12:39:01;7.05;;;1.50;;
34583;SDS011;53696;52.738;4.752;2023-04-30T12:41:38;13.50;;;1.42;;
34583;SDS011;53696;52.738;4.752;2023-04-30T12:44:18;24.65;;;3.22;;
34583;SDS011;53696;52.738;4.752;2023-04-30T12:46:47;4.90;;;1.63;;
34583;SDS011;53696;52.738;4.752;2023-04-30T12:49:24;8.20;;;1.60;;
34583;SDS011;53696;52.738;4.752;2023-04-30T12:51:57;2.45;;;1.33;;
34583;SDS011;53696;52.738;4.752;2023-04-30T12:54:28;8.32;;;1.70;;
34583;SDS011;53696;52.738;4.752;2023-04-30T12:57:00;4.22;;;1.20;;
34583;SDS011;53696;52.738;4.752;2023-04-30T12:59:29;4.60;;;1.13;;
34583;SDS011;53696;52.738;4.752;2023-04-30T13:02:05;4.15;;;1.40;;
34583;SDS011;53696;52.738;4.752;2023-04-30T13:04:36;4.32;;;1.55;;
34583;SDS011;53696;52.738;4.752;2023-04-30T13:07:04;9.05;;;2.10;;
34583;SDS011;53696;52.738;4.752;2023-04-30T13:09:33;4.32;;;1.73;;
34583;SDS011;53696;52.738;4.752;2023-04-30T13:12:02;6.65;;;2.00;;
34583;SDS011;53696;52.738;4.752;2023-04-30T13:14:31;2.50;;;1.65;;
34583;SDS011;53696;52.738;4.752;2023-04-30T13:17:00;6.20;;;1.85;;
34583;SDS011;53696;52.738;4.752;2023-04-30T13:19:30;6.53;;;1.80;;
34583;SDS011;53696;52.738;4.752;2023-04-30T13:22:00;5.82;;;1.60;;
34583;SDS011;53696;52.738;4.752;2023-04-30T13:24:28;3.72;;;1.33;;
34583;SDS011;53696;52.738;4.752;2023-04-30T13:26:56;2.85;;;1.70;;
34583;SDS011;53696;52.738;4.752;2023-04-30T13:29:25;5.40;;;1.42;;
34583;SDS011;53696;52.738;4.752;2023-04-30T13:31:53;6.93;;;1.75;;
34583;SDS011;53696;52.738;4.752;2023-04-30T13:34:21;2.95;;;1.20;;
34583;SDS011;53696;52.738;4.752;2023-04-30T13:36:49;6.13;;;2.15;;
34583;SDS011;53696;52.738;4.752;2023-04-30T13:39:20;1.92;;;1.48;;
34583;SDS011;53696;52.738;4.752;2023-04-30T13:41:49;1.77;;;1.20;;
34583;SDS011;53696;52.738;4.752;2023-04-30T13:44:17;4.30;;;1.40;;
34583;SDS011;53696;52.738;4.752;2023-04-30T13:46:45;6.28;;;1.98;;
34583;SDS011;53696;52.738;4.752;2023-04-30T13:49:13;3.17;;;1.20;;
34583;SDS011;53696;52.738;4.752;2023-04-30T13:51:41;3.60;;;1.58;;
34583;SDS011;53696;52.738;4.752;2023-04-30T13:54:09;2.35;;;1.38;;
34583;SDS011;53696;52.738;4.752;2023-04-30T13:56:38;3.85;;;1.42;;
34583;SDS011;53696;52.738;4.752;2023-04-30T13:59:06;3.85;;;1.10;;
34583;SDS011;53696;52.738;4.752;2023-04-30T14:01:34;5.63;;;1.67;;
34583;SDS011;53696;52.738;4.752;2023-04-30T14:04:02;1.45;;;0.98;;
34583;SDS011;53696;52.738;4.752;2023-04-30T14:06:30;1.65;;;1.10;;
34583;SDS011;53696;52.738;4.752;2023-04-30T14:08:59;5.85;;;1.48;;
34583;SDS011;53696;52.738;4.752;2023-04-30T14:11:27;4.10;;;1.50;;
34583;SDS011;53696;52.738;4.752;2023-04-30T14:13:57;4.28;;;1.27;;
34583;SDS011;53696;52.738;4.752;2023-04-30T14:16:25;3.83;;;1.65;;
34583;SDS011;53696;52.738;4.752;2023-04-30T14:18:54;4.53;;;1.45;;
34583;SDS011;53696;52.738;4.752;2023-04-30T14:21:22;5.68;;;1.65;;
34583;SDS011;53696;52.738;4.752;2023-04-30T14:23:49;3.30;;;1.85;;
34583;SDS011;53696;52.738;4.752;2023-04-30T14:26:17;17.85;;;2.35;;
34583;SDS011;53696;52.738;4.752;2023-04-30T14:28:45;6.15;;;1.40;;
34583;SDS011;53696;52.738;4.752;2023-04-30T14:31:15;4.75;;;1.67;;
34583;SDS011;53696;52.738;4.752;2023-04-30T14:33:43;2.13;;;1.30;;
34583;SDS011;53696;52.738;4.752;2023-04-30T14:36:11;4.32;;;1.33;;
34583;SDS011;53696;52.738;4.752;2023-04-30T14:38:39;5.63;;;1.30;;
34583;SDS011;53696;52.738;4.752;2023-04-30T14:41:07;6.00;;;2.10;;
34583;SDS011;53696;52.738;4.752;2023-04-30T14:43:35;3.53;;;1.20;;
34583;SDS011;53696;52.738;4.752;2023-04-30T14:46:03;3.20;;;1.30;;
34583;SDS011;53696;52.738;4.752;2023-04-30T14:48:33;3.80;;;1.17;;
34583;SDS011;53696;52.738;4.752;2023-04-30T14:51:01;3.30;;;1.70;;
34583;SDS011;53696;52.738;4.752;2023-04-30T14:53:30;5.63;;;1.52;;
34583;SDS011;53696;52.738;4.752;2023-04-30T14:55:58;5.03;;;1.45;;
34583;SDS011;53696;52.738;4.752;2023-04-30T14:58:26;12.93;;;1.25;;
34583;SDS011;53696;52.738;4.752;2023-04-30T15:00:53;3.65;;;1.40;;
34583;SDS011;53696;52.738;4.752;2023-04-30T15:03:22;6.10;;;1.30;;
34583;SDS011;53696;52.738;4.752;2023-04-30T15:05:51;3.08;;;1.30;;